sensor_id;sensor_type;location;lat;lon;timestamp;P1;durP1;ratioP1;P2;durP2;ratioP2
5752;SDS011;2901;42.140;24.760;2023-04-20T00:01:39;11.63;;;10.63;;
5752;SDS011;2901;42.140;24.760;2023-04-20T00:04:05;10.35;;;9.65;;
5752;SDS011;2901;42.140;24.760;2023-04-20T00:06:30;10.57;;;9.63;;
5752;SDS011;2901;42.140;24.760;2023-04-20T00:08:58;10.52;;;9.88;;
5752;SDS011;2901;42.140;24.760;2023-04-20T00:11:23;10.27;;;9.48;;
5752;SDS011;2901;42.140;24.760;2023-04-20T00:13:49;11.05;;;10.35;;
5752;SDS011;2901;42.140;24.760;2023-04-20T00:16:14;11.70;;;10.85;;
5752;SDS011;2901;42.140;24.760;2023-04-20T00:18:39;11.65;;;9.98;;
5752;SDS011;2901;42.140;24.760;2023-04-20T00:21:05;12.73;;;11.70;;
5752;SDS011;2901;42.140;24.760;2023-04-20T00:23:30;13.18;;;11.85;;
5752;SDS011;2901;42.140;24.760;2023-04-20T00:25:56;14.80;;;11.57;;
5752;SDS011;2901;42.140;24.760;2023-04-20T00:28:21;11.27;;;10.45;;
5752;SDS011;2901;42.140;24.760;2023-04-20T00:30:46;11.45;;;10.45;;
5752;SDS011;2901;42.140;24.760;2023-04-20T00:33:12;10.48;;;9.55;;
5752;SDS011;2901;42.140;24.760;2023-04-20T00:35:37;11.38;;;10.43;;
5752;SDS011;2901;42.140;24.760;2023-04-20T00:38:02;11.52;;;10.75;;
5752;SDS011;2901;42.140;24.760;2023-04-20T00:40:28;8.80;;;8.10;;
5752;SDS011;2901;42.140;24.760;2023-04-20T00:42:53;9.60;;;8.88;;
5752;SDS011;2901;42.140;24.760;2023-04-20T00:45:19;14.00;;;9.25;;
5752;SDS011;2901;42.140;24.760;2023-04-20T00:47:46;9.68;;;8.98;;
5752;SDS011;2901;42.140;24.760;2023-04-20T00:50:11;9.18;;;8.65;;
5752;SDS011;2901;42.140;24.760;2023-04-20T00:52:37;9.00;;;8.32;;
5752;SDS011;2901;42.140;24.760;2023-04-20T00:55:04;10.55;;;9.23;;
5752;SDS011;2901;42.140;24.760;2023-04-20T00:57:30;9.85;;;8.90;;
5752;SDS011;2901;42.140;24.760;2023-04-20T00:59:56;9.18;;;8.57;;
5752;SDS011;2901;42.140;24.760;2023-04-20T01:02:22;9.63;;;9.02;;
5752;SDS011;2901;42.140;24.760;2023-04-20T01:04:47;9.85;;;8.90;;
5752;SDS011;2901;42.140;24.760;2023-04-20T01:07:12;8.27;;;7.80;;
5752;SDS011;2901;42.140;24.760;2023-04-20T01:09:38;8.25;;;7.75;;
5752;SDS011;2901;42.140;24.760;2023-04-20T01:12:04;8.27;;;7.57;;
5752;SDS011;2901;42.140;24.760;2023-04-20T01:14:30;9.20;;;8.55;;
5752;SDS011;2901;42.140;24.760;2023-04-20T01:16:56;9.00;;;8.50;;
5752;SDS011;2901;42.140;24.760;2023-04-20T01:19:22;8.18;;;7.70;;
5752;SDS011;2901;42.140;24.760;2023-04-20T01:21:48;8.18;;;6.90;;
5752;SDS011;2901;42.140;24.760;2023-04-20T01:24:13;8.95;;;8.45;;
5752;SDS011;2901;42.140;24.760;2023-04-20T01:26:38;8.15;;;7.63;;
5752;SDS011;2901;42.140;24.760;2023-04-20T01:29:04;8.48;;;8.00;;
5752;SDS011;2901;42.140;24.760;2023-04-20T01:31:29;8.70;;;8.15;;
5752;SDS011;2901;42.140;24.760;2023-04-20T01:33:55;9.20;;;8.45;;
5752;SDS011;2901;42.140;24.760;2023-04-20T01:36:21;8.85;;;8.25;;
5752;SDS011;2901;42.140;24.760;2023-04-20T01:38:46;7.28;;;6.88;;
5752;SDS011;2901;42.140;24.760;2023-04-20T01:41:12;7.40;;;7.00;;
5752;SDS011;2901;42.140;24.760;2023-04-20T01:43:38;7.88;;;7.25;;
5752;SDS011;2901;42.140;24.760;2023-04-20T01:46:04;7.85;;;7.20;;
5752;SDS011;2901;42.140;24.760;2023-04-20T01:48:30;6.85;;;6.45;;
5752;SDS011;2901;42.140;24.760;2023-04-20T01:50:55;7.90;;;7.35;;
5752;SDS011;2901;42.140;24.760;2023-04-20T01:53:21;7.60;;;7.00;;
5752;SDS011;2901;42.140;24.760;2023-04-20T01:55:47;7.25;;;6.80;;
5752;SDS011;2901;42.140;24.760;2023-04-20T01:58:14;6.88;;;6.57;;
5752;SDS011;2901;42.140;24.760;2023-04-20T02:00:40;7.47;;;7.07;;
5752;SDS011;2901;42.140;24.760;2023-04-20T02:03:05;7.25;;;6.68;;
5752;SDS011;2901;42.140;24.760;2023-04-20T02:05:31;7.97;;;7.47;;
5752;SDS011;2901;42.140;24.760;2023-04-20T02:07:56;8.02;;;7.53;;
5752;SDS011;2901;42.140;24.760;2023-04-20T02:10:21;7.50;;;6.97;;
5752;SDS011;2901;42.140;24.760;2023-04-20T02:12:48;8.35;;;7.85;;
5752;SDS011;2901;42.140;24.760;2023-04-20T02:15:14;8.85;;;7.68;;
5752;SDS011;2901;42.140;24.760;2023-04-20T02:17:40;7.13;;;6.72;;
5752;SDS011;2901;42.140;24.760;2023-04-20T02:20:06;8.10;;;7.40;;
5752;SDS011;2901;42.140;24.760;2023-04-20T02:22:35;7.57;;;7.25;;
5752;SDS011;2901;42.140;24.760;2023-04-20T02:25:02;7.78;;;7.10;;
5752;SDS011;2901;42.140;24.760;2023-04-20T02:27:29;6.95;;;6.53;;
5752;SDS011;2901;42.140;24.760;2023-04-20T02:29:55;7.00;;;6.60;;
5752;SDS011;2901;42.140;24.760;2023-04-20T02:32:21;7.38;;;6.70;;
5752;SDS011;2901;42.140;24.760;2023-04-20T02:34:46;7.40;;;6.80;;
5752;SDS011;2901;42.140;24.760;2023-04-20T02:37:12;7.18;;;6.88;;
5752;SDS011;2901;42.140;24.760;2023-04-20T02:39:37;7.20;;;6.80;;
5752;SDS011;2901;42.140;24.760;2023-04-20T02:42:03;7.57;;;7.03;;
5752;SDS011;2901;42.140;24.760;2023-04-20T02:44:29;7.70;;;7.35;;
5752;SDS011;2901;42.140;24.760;2023-04-20T02:46:54;7.65;;;7.15;;
5752;SDS011;2901;42.140;24.760;2023-04-20T02:49:20;7.53;;;7.03;;
5752;SDS011;2901;42.140;24.760;2023-04-20T02:51:45;7.63;;;7.15;;
5752;SDS011;2901;42.140;24.760;2023-04-20T02:54:10;8.43;;;7.93;;
5752;SDS011;2901;42.140;24.760;2023-04-20T02:56:36;7.93;;;7.35;;
5752;SDS011;2901;42.140;24.760;2023-04-20T02:59:01;7.43;;;6.93;;
5752;SDS011;2901;42.140;24.760;2023-04-20T03:01:27;8.10;;;7.70;;
5752;SDS011;2901;42.140;24.760;2023-04-20T03:03:52;7.00;;;6.60;;
5752;SDS011;2901;42.140;24.760;2023-04-20T03:06:17;7.35;;;6.85;;
5752;SDS011;2901;42.140;24.760;2023-04-20T03:08:43;8.02;;;7.63;;
5752;SDS011;2901;42.140;24.760;2023-04-20T03:11:08;6.95;;;6.40;;
5752;SDS011;2901;42.140;24.760;2023-04-20T03:13:34;7.78;;;7.28;;
5752;SDS011;2901;42.140;24.760;2023-04-20T03:16:00;7.75;;;7.32;;
5752;SDS011;2901;42.140;24.760;2023-04-20T03:18:25;8.32;;;7.82;;
5752;SDS011;2901;42.140;24.760;2023-04-20T03:20:51;8.55;;;8.05;;
5752;SDS011;2901;42.140;24.760;2023-04-20T03:23:16;7.63;;;7.22;;
5752;SDS011;2901;42.140;24.760;2023-04-20T03:25:42;9.82;;;7.85;;
5752;SDS011;2901;42.140;24.760;2023-04-20T03:28:08;8.27;;;7.60;;
5752;SDS011;2901;42.140;24.760;2023-04-20T03:30:34;7.20;;;6.80;;
5752;SDS011;2901;42.140;24.760;2023-04-20T03:32:59;8.05;;;7.45;;
5752;SDS011;2901;42.140;24.760;2023-04-20T03:35:25;8.32;;;7.85;;
5752;SDS011;2901;42.140;24.760;2023-04-20T03:37:51;8.70;;;7.88;;
5752;SDS011;2901;42.140;24.760;2023-04-20T03:40:16;8.10;;;7.40;;
5752;SDS011;2901;42.140;24.760;2023-04-20T03:42:42;9.18;;;8.35;;
5752;SDS011;2901;42.140;24.760;2023-04-20T03:45:07;10.95;;;8.77;;
5752;SDS011;2901;42.140;24.760;2023-04-20T03:47:33;8.32;;;7.63;;
5752;SDS011;2901;42.140;24.760;2023-04-20T03:49:58;8.75;;;8.25;;
5752;SDS011;2901;42.140;24.760;2023-04-20T03:52:24;8.70;;;7.93;;
5752;SDS011;2901;42.140;24.760;2023-04-20T03:54:49;9.02;;;8.45;;
5752;SDS011;2901;42.140;24.760;2023-04-20T03:57:15;9.23;;;8.40;;
5752;SDS011;2901;42.140;24.760;2023-04-20T03:59:40;8.68;;;7.97;;
5752;SDS011;2901;42.140;24.760;2023-04-20T04:02:06;8.52;;;7.95;;
5752;SDS011;2901;42.140;24.760;2023-04-20T04:04:31;8.43;;;7.95;;
5752;SDS011;2901;42.140;24.760;2023-04-20T04:06:57;9.43;;;8.63;;
5752;SDS011;2901;42.140;24.760;2023-04-20T04:09:23;10.10;;;6.65;;
5752;SDS011;2901;42.140;24.760;2023-04-20T04:11:50;7.70;;;7.03;;
5752;SDS011;2901;42.140;24.760;2023-04-20T04:14:16;6.88;;;6.38;;
5752;SDS011;2901;42.140;24.760;2023-04-20T04:16:41;9.88;;;7.25;;
5752;SDS011;2901;42.140;24.760;2023-04-20T04:19:06;7.28;;;6.80;;
5752;SDS011;2901;42.140;24.760;2023-04-20T04:21:32;7.78;;;7.18;;
5752;SDS011;2901;42.140;24.760;2023-04-20T04:23:58;7.55;;;7.00;;
5752;SDS011;2901;42.140;24.760;2023-04-20T04:26:24;7.18;;;6.57;;
5752;SDS011;2901;42.140;24.760;2023-04-20T04:28:50;8.45;;;6.90;;
5752;SDS011;2901;42.140;24.760;2023-04-20T04:31:16;8.98;;;6.72;;
5752;SDS011;2901;42.140;24.760;2023-04-20T04:33:43;7.85;;;7.30;;
5752;SDS011;2901;42.140;24.760;2023-04-20T04:36:10;7.93;;;7.20;;
5752;SDS011;2901;42.140;24.760;2023-04-20T04:38:36;9.60;;;6.78;;
5752;SDS011;2901;42.140;24.760;2023-04-20T04:41:01;8.48;;;7.72;;
5752;SDS011;2901;42.140;24.760;2023-04-20T04:43:27;7.03;;;6.63;;
5752;SDS011;2901;42.140;24.760;2023-04-20T04:45:53;7.35;;;6.95;;
5752;SDS011;2901;42.140;24.760;2023-04-20T04:48:19;8.98;;;7.25;;
5752;SDS011;2901;42.140;24.760;2023-04-20T04:50:44;7.60;;;7.05;;
5752;SDS011;2901;42.140;24.760;2023-04-20T04:53:10;9.88;;;9.02;;
5752;SDS011;2901;42.140;24.760;2023-04-20T04:55:36;7.80;;;7.20;;
5752;SDS011;2901;42.140;24.760;2023-04-20T04:58:01;9.80;;;7.70;;
5752;SDS011;2901;42.140;24.760;2023-04-20T05:00:27;8.55;;;7.80;;
5752;SDS011;2901;42.140;24.760;2023-04-20T05:02:53;12.55;;;9.02;;
5752;SDS011;2901;42.140;24.760;2023-04-20T05:05:19;8.63;;;8.07;;
5752;SDS011;2901;42.140;24.760;2023-04-20T05:07:45;9.82;;;8.82;;
5752;SDS011;2901;42.140;24.760;2023-04-20T05:10:11;10.00;;;8.10;;
5752;SDS011;2901;42.140;24.760;2023-04-20T05:12:37;7.88;;;7.35;;
5752;SDS011;2901;42.140;24.760;2023-04-20T05:15:03;8.20;;;7.78;;
5752;SDS011;2901;42.140;24.760;2023-04-20T05:17:29;9.07;;;8.43;;
5752;SDS011;2901;42.140;24.760;2023-04-20T05:19:54;12.60;;;7.47;;
5752;SDS011;2901;42.140;24.760;2023-04-20T05:22:19;7.93;;;7.32;;
5752;SDS011;2901;42.140;24.760;2023-04-20T05:24:45;7.47;;;7.05;;
5752;SDS011;2901;42.140;24.760;2023-04-20T05:27:10;8.43;;;7.65;;
5752;SDS011;2901;42.140;24.760;2023-04-20T05:29:36;13.02;;;7.70;;
5752;SDS011;2901;42.140;24.760;2023-04-20T05:32:02;7.55;;;6.93;;
5752;SDS011;2901;42.140;24.760;2023-04-20T05:34:28;13.35;;;8.77;;
5752;SDS011;2901;42.140;24.760;2023-04-20T05:36:53;7.40;;;6.90;;
5752;SDS011;2901;42.140;24.760;2023-04-20T05:39:20;12.85;;;8.15;;
5752;SDS011;2901;42.140;24.760;2023-04-20T05:41:46;9.00;;;8.25;;
5752;SDS011;2901;42.140;24.760;2023-04-20T05:44:12;9.18;;;8.48;;
5752;SDS011;2901;42.140;24.760;2023-04-20T05:46:38;9.55;;;8.07;;
5752;SDS011;2901;42.140;24.760;2023-04-20T05:49:04;9.07;;;8.20;;
5752;SDS011;2901;42.140;24.760;2023-04-20T05:51:30;7.75;;;6.95;;
5752;SDS011;2901;42.140;24.760;2023-04-20T05:53:58;6.80;;;6.18;;
5752;SDS011;2901;42.140;24.760;2023-04-20T05:56:24;7.85;;;7.32;;
5752;SDS011;2901;42.140;24.760;2023-04-20T05:58:49;9.30;;;8.02;;
5752;SDS011;2901;42.140;24.760;2023-04-20T06:01:16;18.40;;;6.35;;
5752;SDS011;2901;42.140;24.760;2023-04-20T06:03:41;7.82;;;7.28;;
5752;SDS011;2901;42.140;24.760;2023-04-20T06:06:07;8.05;;;7.50;;
5752;SDS011;2901;42.140;24.760;2023-04-20T06:08:32;6.60;;;6.00;;
5752;SDS011;2901;42.140;24.760;2023-04-20T06:10:57;6.78;;;6.28;;
5752;SDS011;2901;42.140;24.760;2023-04-20T06:13:23;6.68;;;6.18;;
5752;SDS011;2901;42.140;24.760;2023-04-20T06:15:48;5.70;;;5.30;;
5752;SDS011;2901;42.140;24.760;2023-04-20T06:18:14;6.45;;;5.93;;
5752;SDS011;2901;42.140;24.760;2023-04-20T06:20:41;6.13;;;5.63;;
5752;SDS011;2901;42.140;24.760;2023-04-20T06:23:07;6.25;;;5.82;;
5752;SDS011;2901;42.140;24.760;2023-04-20T06:25:34;6.85;;;6.40;;
5752;SDS011;2901;42.140;24.760;2023-04-20T06:28:00;6.47;;;5.95;;
5752;SDS011;2901;42.140;24.760;2023-04-20T06:30:26;5.78;;;5.25;;
5752;SDS011;2901;42.140;24.760;2023-04-20T06:32:51;6.20;;;5.80;;
5752;SDS011;2901;42.140;24.760;2023-04-20T06:35:17;6.80;;;6.20;;
5752;SDS011;2901;42.140;24.760;2023-04-20T06:37:42;6.75;;;6.35;;
5752;SDS011;2901;42.140;24.760;2023-04-20T06:40:08;6.57;;;6.05;;
5752;SDS011;2901;42.140;24.760;2023-04-20T06:42:33;6.78;;;6.10;;
5752;SDS011;2901;42.140;24.760;2023-04-20T06:44:59;8.02;;;7.53;;
5752;SDS011;2901;42.140;24.760;2023-04-20T06:47:24;7.10;;;6.57;;
5752;SDS011;2901;42.140;24.760;2023-04-20T06:50:02;6.70;;;5.97;;
5752;SDS011;2901;42.140;24.760;2023-04-20T06:52:31;6.38;;;5.88;;
5752;SDS011;2901;42.140;24.760;2023-04-20T06:54:57;6.90;;;6.50;;
5752;SDS011;2901;42.140;24.760;2023-04-20T06:57:23;7.88;;;6.50;;
5752;SDS011;2901;42.140;24.760;2023-04-20T06:59:49;6.18;;;5.78;;
5752;SDS011;2901;42.140;24.760;2023-04-20T07:02:14;6.53;;;6.03;;
5752;SDS011;2901;42.140;24.760;2023-04-20T07:04:40;6.45;;;6.05;;
5752;SDS011;2901;42.140;24.760;2023-04-20T07:07:05;6.40;;;5.95;;
5752;SDS011;2901;42.140;24.760;2023-04-20T07:09:30;8.07;;;6.05;;
5752;SDS011;2901;42.140;24.760;2023-04-20T07:11:56;6.60;;;6.05;;
5752;SDS011;2901;42.140;24.760;2023-04-20T07:14:21;6.28;;;5.88;;
5752;SDS011;2901;42.140;24.760;2023-04-20T07:16:47;5.75;;;5.45;;
5752;SDS011;2901;42.140;24.760;2023-04-20T07:19:16;7.03;;;6.43;;
5752;SDS011;2901;42.140;24.760;2023-04-20T07:21:42;6.10;;;5.78;;
5752;SDS011;2901;42.140;24.760;2023-04-20T07:24:07;6.30;;;6.00;;
5752;SDS011;2901;42.140;24.760;2023-04-20T07:26:32;18.60;;;7.57;;
5752;SDS011;2901;42.140;24.760;2023-04-20T07:28:58;6.78;;;6.18;;
5752;SDS011;2901;42.140;24.760;2023-04-20T07:31:23;6.70;;;6.15;;
5752;SDS011;2901;42.140;24.760;2023-04-20T07:33:48;6.28;;;5.78;;
5752;SDS011;2901;42.140;24.760;2023-04-20T07:36:14;6.75;;;6.28;;
5752;SDS011;2901;42.140;24.760;2023-04-20T07:38:39;5.95;;;5.55;;
5752;SDS011;2901;42.140;24.760;2023-04-20T07:41:07;7.32;;;6.47;;
5752;SDS011;2901;42.140;24.760;2023-04-20T07:43:34;8.80;;;6.22;;
5752;SDS011;2901;42.140;24.760;2023-04-20T07:45:59;7.28;;;6.88;;
5752;SDS011;2901;42.140;24.760;2023-04-20T07:48:25;7.13;;;6.10;;
5752;SDS011;2901;42.140;24.760;2023-04-20T07:50:50;6.00;;;5.60;;
5752;SDS011;2901;42.140;24.760;2023-04-20T07:53:15;6.75;;;6.45;;
5752;SDS011;2901;42.140;24.760;2023-04-20T07:55:41;7.40;;;6.03;;
5752;SDS011;2901;42.140;24.760;2023-04-20T07:58:06;6.25;;;5.80;;
5752;SDS011;2901;42.140;24.760;2023-04-20T08:00:31;5.70;;;5.40;;
5752;SDS011;2901;42.140;24.760;2023-04-20T08:02:57;7.45;;;6.55;;
5752;SDS011;2901;42.140;24.760;2023-04-20T08:05:22;6.22;;;5.93;;
5752;SDS011;2901;42.140;24.760;2023-04-20T08:07:48;8.88;;;5.72;;
5752;SDS011;2901;42.140;24.760;2023-04-20T08:10:13;6.88;;;6.10;;
5752;SDS011;2901;42.140;24.760;2023-04-20T08:12:39;6.90;;;6.25;;
5752;SDS011;2901;42.140;24.760;2023-04-20T08:15:05;6.78;;;6.10;;
5752;SDS011;2901;42.140;24.760;2023-04-20T08:17:33;6.93;;;6.63;;
5752;SDS011;2901;42.140;24.760;2023-04-20T08:19:59;6.68;;;6.20;;
5752;SDS011;2901;42.140;24.760;2023-04-20T08:22:25;8.43;;;7.45;;
5752;SDS011;2901;42.140;24.760;2023-04-20T08:24:53;6.85;;;6.03;;
5752;SDS011;2901;42.140;24.760;2023-04-20T08:27:22;6.32;;;5.82;;
5752;SDS011;2901;42.140;24.760;2023-04-20T08:29:48;12.50;;;7.20;;
5752;SDS011;2901;42.140;24.760;2023-04-20T08:32:13;8.02;;;7.57;;
5752;SDS011;2901;42.140;24.760;2023-04-20T08:34:39;7.25;;;6.85;;
5752;SDS011;2901;42.140;24.760;2023-04-20T08:37:05;7.57;;;6.97;;
5752;SDS011;2901;42.140;24.760;2023-04-20T08:39:31;7.22;;;6.82;;
5752;SDS011;2901;42.140;24.760;2023-04-20T08:41:57;7.72;;;6.70;;
5752;SDS011;2901;42.140;24.760;2023-04-20T08:44:22;7.05;;;6.55;;
5752;SDS011;2901;42.140;24.760;2023-04-20T08:46:49;6.47;;;6.18;;
5752;SDS011;2901;42.140;24.760;2023-04-20T08:49:15;7.10;;;6.70;;
5752;SDS011;2901;42.140;24.760;2023-04-20T08:51:42;6.45;;;6.15;;
5752;SDS011;2901;42.140;24.760;2023-04-20T08:54:09;7.80;;;7.10;;
5752;SDS011;2901;42.140;24.760;2023-04-20T08:56:39;8.07;;;5.80;;
5752;SDS011;2901;42.140;24.760;2023-04-20T08:59:12;6.70;;;6.10;;
5752;SDS011;2901;42.140;24.760;2023-04-20T09:01:38;6.80;;;6.13;;
5752;SDS011;2901;42.140;24.760;2023-04-20T09:04:15;6.20;;;5.68;;
5752;SDS011;2901;42.140;24.760;2023-04-20T09:06:43;6.38;;;5.78;;
5752;SDS011;2901;42.140;24.760;2023-04-20T09:09:09;7.10;;;6.68;;
5752;SDS011;2901;42.140;24.760;2023-04-20T09:11:35;7.57;;;7.07;;
5752;SDS011;2901;42.140;24.760;2023-04-20T09:14:01;7.47;;;6.97;;
5752;SDS011;2901;42.140;24.760;2023-04-20T09:16:30;7.07;;;6.50;;
5752;SDS011;2901;42.140;24.760;2023-04-20T09:18:56;7.28;;;6.78;;
5752;SDS011;2901;42.140;24.760;2023-04-20T09:21:22;7.07;;;6.68;;
5752;SDS011;2901;42.140;24.760;2023-04-20T09:23:56;6.97;;;6.50;;
5752;SDS011;2901;42.140;24.760;2023-04-20T09:26:23;7.55;;;5.50;;
5752;SDS011;2901;42.140;24.760;2023-04-20T09:28:48;6.05;;;5.57;;
5752;SDS011;2901;42.140;24.760;2023-04-20T09:31:17;6.72;;;5.88;;
5752;SDS011;2901;42.140;24.760;2023-04-20T09:34:00;5.80;;;5.38;;
5752;SDS011;2901;42.140;24.760;2023-04-20T09:39:16;6.25;;;5.80;;
5752;SDS011;2901;42.140;24.760;2023-04-20T09:41:46;8.57;;;5.97;;
5752;SDS011;2901;42.140;24.760;2023-04-20T09:44:14;8.60;;;6.00;;
5752;SDS011;2901;42.140;24.760;2023-04-20T09:46:40;6.35;;;5.97;;
5752;SDS011;2901;42.140;24.760;2023-04-20T09:49:07;5.88;;;5.60;;
5752;SDS011;2901;42.140;24.760;2023-04-20T09:51:34;5.43;;;5.05;;
5752;SDS011;2901;42.140;24.760;2023-04-20T09:54:01;5.07;;;4.88;;
5752;SDS011;2901;42.140;24.760;2023-04-20T09:56:28;6.25;;;5.72;;
5752;SDS011;2901;42.140;24.760;2023-04-20T09:58:54;5.30;;;4.88;;
5752;SDS011;2901;42.140;24.760;2023-04-20T10:01:21;5.30;;;5.00;;
5752;SDS011;2901;42.140;24.760;2023-04-20T10:03:48;5.72;;;5.47;;
5752;SDS011;2901;42.140;24.760;2023-04-20T10:06:17;5.05;;;4.70;;
5752;SDS011;2901;42.140;24.760;2023-04-20T10:08:49;5.30;;;5.00;;
5752;SDS011;2901;42.140;24.760;2023-04-20T10:13:58;5.60;;;5.13;;
5752;SDS011;2901;42.140;24.760;2023-04-20T10:16:26;5.60;;;5.20;;
5752;SDS011;2901;42.140;24.760;2023-04-20T10:18:55;4.60;;;4.30;;
5752;SDS011;2901;42.140;24.760;2023-04-20T10:21:28;4.88;;;4.68;;
5752;SDS011;2901;42.140;24.760;2023-04-20T10:23:54;4.75;;;4.35;;
5752;SDS011;2901;42.140;24.760;2023-04-20T10:26:21;5.65;;;5.28;;
5752;SDS011;2901;42.140;24.760;2023-04-20T10:28:47;4.78;;;4.57;;
5752;SDS011;2901;42.140;24.760;2023-04-20T10:31:12;6.80;;;4.70;;
5752;SDS011;2901;42.140;24.760;2023-04-20T10:33:53;5.57;;;5.28;;
5752;SDS011;2901;42.140;24.760;2023-04-20T10:36:23;5.30;;;5.00;;
5752;SDS011;2901;42.140;24.760;2023-04-20T10:38:51;6.05;;;5.55;;
5752;SDS011;2901;42.140;24.760;2023-04-20T10:41:17;5.60;;;5.20;;
5752;SDS011;2901;42.140;24.760;2023-04-20T10:43:43;5.03;;;4.78;;
5752;SDS011;2901;42.140;24.760;2023-04-20T10:46:21;5.82;;;5.32;;
5752;SDS011;2901;42.140;24.760;2023-04-20T10:51:17;5.13;;;4.80;;
5752;SDS011;2901;42.140;24.760;2023-04-20T10:53:43;5.28;;;5.05;;
5752;SDS011;2901;42.140;24.760;2023-04-20T10:56:08;5.10;;;4.78;;
5752;SDS011;2901;42.140;24.760;2023-04-20T10:58:34;5.32;;;4.88;;
5752;SDS011;2901;42.140;24.760;2023-04-20T11:01:01;4.82;;;4.53;;
5752;SDS011;2901;42.140;24.760;2023-04-20T11:03:28;5.13;;;4.82;;
5752;SDS011;2901;42.140;24.760;2023-04-20T11:05:54;4.85;;;4.30;;
5752;SDS011;2901;42.140;24.760;2023-04-20T11:08:34;5.47;;;5.07;;
5752;SDS011;2901;42.140;24.760;2023-04-20T11:11:25;5.93;;;5.50;;
5752;SDS011;2901;42.140;24.760;2023-04-20T11:14:03;6.32;;;6.03;;
5752;SDS011;2901;42.140;24.760;2023-04-20T11:16:31;7.85;;;7.35;;
5752;SDS011;2901;42.140;24.760;2023-04-20T11:18:57;6.80;;;6.20;;
5752;SDS011;2901;42.140;24.760;2023-04-20T11:21:23;7.65;;;7.25;;
5752;SDS011;2901;42.140;24.760;2023-04-20T11:24:03;6.97;;;6.47;;
5752;SDS011;2901;42.140;24.760;2023-04-20T11:26:35;6.15;;;5.85;;
5752;SDS011;2901;42.140;24.760;2023-04-20T11:29:01;5.40;;;5.20;;
5752;SDS011;2901;42.140;24.760;2023-04-20T11:31:27;6.95;;;6.45;;
5752;SDS011;2901;42.140;24.760;2023-04-20T11:33:53;6.60;;;4.95;;
5752;SDS011;2901;42.140;24.760;2023-04-20T11:36:19;6.97;;;6.57;;
5752;SDS011;2901;42.140;24.760;2023-04-20T11:38:49;5.75;;;5.43;;
5752;SDS011;2901;42.140;24.760;2023-04-20T11:41:15;6.38;;;6.07;;
5752;SDS011;2901;42.140;24.760;2023-04-20T11:43:41;8.15;;;7.78;;
5752;SDS011;2901;42.140;24.760;2023-04-20T11:46:14;7.80;;;6.88;;
5752;SDS011;2901;42.140;24.760;2023-04-20T11:48:41;8.50;;;7.93;;
5752;SDS011;2901;42.140;24.760;2023-04-20T11:51:06;6.97;;;6.68;;
5752;SDS011;2901;42.140;24.760;2023-04-20T11:53:32;7.80;;;7.13;;
5752;SDS011;2901;42.140;24.760;2023-04-20T11:55:58;8.40;;;7.53;;
5752;SDS011;2901;42.140;24.760;2023-04-20T11:58:23;8.80;;;8.20;;
5752;SDS011;2901;42.140;24.760;2023-04-20T12:00:48;8.00;;;7.57;;
5752;SDS011;2901;42.140;24.760;2023-04-20T12:03:14;7.40;;;6.75;;
5752;SDS011;2901;42.140;24.760;2023-04-20T12:05:40;6.18;;;5.88;;
5752;SDS011;2901;42.140;24.760;2023-04-20T12:08:07;5.75;;;5.50;;
5752;SDS011;2901;42.140;24.760;2023-04-20T12:10:32;6.30;;;6.00;;
5752;SDS011;2901;42.140;24.760;2023-04-20T12:12:58;8.48;;;5.97;;
5752;SDS011;2901;42.140;24.760;2023-04-20T12:15:25;4.93;;;4.57;;
5752;SDS011;2901;42.140;24.760;2023-04-20T12:17:50;5.47;;;5.25;;
5752;SDS011;2901;42.140;24.760;2023-04-20T12:20:16;5.78;;;5.40;;
5752;SDS011;2901;42.140;24.760;2023-04-20T12:22:41;8.90;;;5.18;;
5752;SDS011;2901;42.140;24.760;2023-04-20T12:25:07;4.97;;;4.78;;
5752;SDS011;2901;42.140;24.760;2023-04-20T12:27:32;4.22;;;3.92;;
5752;SDS011;2901;42.140;24.760;2023-04-20T12:29:58;4.18;;;3.97;;
5752;SDS011;2901;42.140;24.760;2023-04-20T12:32:23;6.65;;;4.40;;
5752;SDS011;2901;42.140;24.760;2023-04-20T12:34:48;10.10;;;5.80;;
5752;SDS011;2901;42.140;24.760;2023-04-20T12:37:14;4.43;;;3.97;;
5752;SDS011;2901;42.140;24.760;2023-04-20T12:39:39;3.95;;;3.75;;
5752;SDS011;2901;42.140;24.760;2023-04-20T12:42:05;4.38;;;3.97;;
5752;SDS011;2901;42.140;24.760;2023-04-20T12:44:30;4.60;;;4.40;;
5752;SDS011;2901;42.140;24.760;2023-04-20T12:46:56;4.72;;;4.53;;
5752;SDS011;2901;42.140;24.760;2023-04-20T12:49:21;5.35;;;5.05;;
5752;SDS011;2901;42.140;24.760;2023-04-20T12:51:47;4.57;;;4.25;;
5752;SDS011;2901;42.140;24.760;2023-04-20T12:54:12;4.78;;;4.57;;
5752;SDS011;2901;42.140;24.760;2023-04-20T12:56:37;4.07;;;3.75;;
5752;SDS011;2901;42.140;24.760;2023-04-20T12:59:03;4.60;;;4.40;;
5752;SDS011;2901;42.140;24.760;2023-04-20T13:01:28;4.43;;;4.15;;
5752;SDS011;2901;42.140;24.760;2023-04-20T13:03:54;3.95;;;3.75;;
5752;SDS011;2901;42.140;24.760;2023-04-20T13:06:20;4.30;;;3.90;;
5752;SDS011;2901;42.140;24.760;2023-04-20T13:08:45;4.28;;;3.95;;
5752;SDS011;2901;42.140;24.760;2023-04-20T13:11:10;5.80;;;3.40;;
5752;SDS011;2901;42.140;24.760;2023-04-20T13:13:39;4.28;;;4.07;;
5752;SDS011;2901;42.140;24.760;2023-04-20T13:16:04;4.22;;;4.03;;
5752;SDS011;2901;42.140;24.760;2023-04-20T13:18:30;3.95;;;3.72;;
5752;SDS011;2901;42.140;24.760;2023-04-20T13:20:55;5.93;;;3.58;;
5752;SDS011;2901;42.140;24.760;2023-04-20T13:23:21;4.40;;;2.90;;
5752;SDS011;2901;42.140;24.760;2023-04-20T13:25:46;3.65;;;3.35;;
5752;SDS011;2901;42.140;24.760;2023-04-20T13:28:11;3.20;;;3.10;;
5752;SDS011;2901;42.140;24.760;2023-04-20T13:30:37;3.05;;;2.95;;
5752;SDS011;2901;42.140;24.760;2023-04-20T13:33:03;2.88;;;2.65;;
5752;SDS011;2901;42.140;24.760;2023-04-20T13:35:28;3.85;;;3.50;;
5752;SDS011;2901;42.140;24.760;2023-04-20T13:37:53;3.58;;;3.35;;
5752;SDS011;2901;42.140;24.760;2023-04-20T13:40:19;3.35;;;3.15;;
5752;SDS011;2901;42.140;24.760;2023-04-20T13:42:45;3.90;;;3.60;;
5752;SDS011;2901;42.140;24.760;2023-04-20T13:45:10;3.55;;;3.25;;
5752;SDS011;2901;42.140;24.760;2023-04-20T13:47:36;3.85;;;3.60;;
5752;SDS011;2901;42.140;24.760;2023-04-20T13:50:03;3.83;;;3.47;;
5752;SDS011;2901;42.140;24.760;2023-04-20T13:52:30;3.30;;;3.10;;
5752;SDS011;2901;42.140;24.760;2023-04-20T13:54:55;3.72;;;3.45;;
5752;SDS011;2901;42.140;24.760;2023-04-20T13:57:21;2.72;;;2.53;;
5752;SDS011;2901;42.140;24.760;2023-04-20T13:59:46;4.75;;;2.85;;
5752;SDS011;2901;42.140;24.760;2023-04-20T14:02:11;2.58;;;2.47;;
5752;SDS011;2901;42.140;24.760;2023-04-20T14:04:37;2.97;;;2.72;;
5752;SDS011;2901;42.140;24.760;2023-04-20T14:07:02;2.83;;;2.60;;
5752;SDS011;2901;42.140;24.760;2023-04-20T14:09:29;2.55;;;2.45;;
5752;SDS011;2901;42.140;24.760;2023-04-20T14:11:55;3.50;;;3.28;;
5752;SDS011;2901;42.140;24.760;2023-04-20T14:14:21;4.15;;;3.95;;
5752;SDS011;2901;42.140;24.760;2023-04-20T14:16:47;6.68;;;3.60;;
5752;SDS011;2901;42.140;24.760;2023-04-20T14:19:13;3.35;;;3.15;;
5752;SDS011;2901;42.140;24.760;2023-04-20T14:21:39;3.08;;;2.88;;
5752;SDS011;2901;42.140;24.760;2023-04-20T14:24:07;3.55;;;3.38;;
5752;SDS011;2901;42.140;24.760;2023-04-20T14:26:34;2.97;;;2.88;;
5752;SDS011;2901;42.140;24.760;2023-04-20T14:28:59;3.67;;;3.13;;
5752;SDS011;2901;42.140;24.760;2023-04-20T14:31:25;3.33;;;3.08;;
5752;SDS011;2901;42.140;24.760;2023-04-20T14:33:50;4.07;;;3.78;;
5752;SDS011;2901;42.140;24.760;2023-04-20T14:36:15;2.65;;;2.55;;
5752;SDS011;2901;42.140;24.760;2023-04-20T14:38:41;3.03;;;2.92;;
5752;SDS011;2901;42.140;24.760;2023-04-20T14:41:06;3.75;;;3.47;;
5752;SDS011;2901;42.140;24.760;2023-04-20T14:43:32;3.10;;;3.00;;
5752;SDS011;2901;42.140;24.760;2023-04-20T14:45:58;2.90;;;2.80;;
5752;SDS011;2901;42.140;24.760;2023-04-20T14:48:24;2.65;;;2.40;;
5752;SDS011;2901;42.140;24.760;2023-04-20T14:50:50;3.17;;;3.08;;
5752;SDS011;2901;42.140;24.760;2023-04-20T14:53:16;3.15;;;2.95;;
5752;SDS011;2901;42.140;24.760;2023-04-20T14:55:42;3.70;;;3.50;;
5752;SDS011;2901;42.140;24.760;2023-04-20T14:58:07;2.80;;;2.70;;
5752;SDS011;2901;42.140;24.760;2023-04-20T15:00:33;3.60;;;3.15;;
5752;SDS011;2901;42.140;24.760;2023-04-20T15:02:58;3.47;;;3.28;;